createdAt,value
2022-08-22T00:00:15.052Z,81.45
2022-08-22T00:03:01.814Z,76.63
2022-08-22T00:03:09.861Z,75.88
2022-08-22T00:10:21.010Z,80.91
2022-08-22T00:20:34.288Z,82.65
2022-08-22T00:30:56.417Z,81.42
2022-08-22T00:41:01.649Z,81.98
2022-08-22T00:51:29.380Z,81.22
2022-08-22T01:01:36.591Z,82.63
2022-08-22T01:11:38.190Z,83.69
2022-08-22T01:22:18.504Z,83.16
2022-08-22T01:32:28.892Z,82.60
2022-08-22T01:42:33.258Z,82.35
2022-08-22T01:52:39.376Z,83.09
2022-08-22T02:02:59.930Z,83.23
2022-08-22T02:13:01.694Z,83.08
2022-08-22T02:23:22.249Z,82.98
2022-08-22T02:33:34.056Z,82.20
2022-08-22T02:43:40.091Z,85.08
2022-08-22T02:53:45.241Z,84.00
2022-08-22T03:03:48.415Z,85.81
2022-08-22T03:14:05.818Z,84.80
2022-08-22T03:24:07.478Z,85.50
2022-08-22T03:34:18.983Z,84.26
2022-08-22T03:44:56.204Z,83.92
2022-08-22T03:55:16.985Z,83.22
2022-08-22T04:05:31.682Z,83.17
2022-08-22T04:25:42.093Z,79.19
2022-08-22T04:35:54.350Z,77.87
2022-08-22T04:46:19.353Z,76.77
2022-08-22T04:56:22.021Z,72.45
2022-08-22T05:06:27.056Z,69.01
2022-08-22T05:16:30.684Z,64.20
2022-08-22T05:26:40.934Z,62.42
2022-08-22T05:36:48.658Z,61.93
2022-08-22T05:46:58.139Z,57.12
2022-08-22T05:57:08.001Z,55.55
2022-08-22T06:07:14.282Z,54.22
2022-08-22T06:17:20.466Z,55.12
2022-08-22T06:27:24.222Z,55.23
2022-08-22T06:37:33.917Z,53.55
2022-08-22T06:48:00.283Z,50.97
2022-08-22T06:58:05.401Z,49.17
2022-08-22T07:08:08.630Z,46.72
2022-08-22T07:18:18.239Z,44.41
2022-08-22T07:28:36.842Z,43.78
2022-08-22T07:39:19.029Z,43.40
2022-08-22T07:49:27.078Z,43.82
2022-08-22T07:59:29.750Z,42.50
2022-08-22T08:09:34.210Z,43.33
2022-08-22T08:19:39.905Z,38.75
2022-08-22T08:29:45.445Z,37.26
2022-08-22T08:39:50.894Z,34.63
2022-08-22T08:50:01.942Z,33.56
2022-08-22T09:00:30.325Z,33.49
2022-08-22T09:10:32.158Z,33.06
2022-08-22T09:40:15.704Z,30.25
2022-08-22T09:42:08.140Z,30.04
2022-08-22T09:52:35.009Z,29.25
2022-08-22T10:02:50.348Z,29.90
2022-08-22T10:13:02.919Z,30.62
2022-08-22T10:23:08.515Z,30.48
2022-08-22T10:33:24.797Z,30.82
2022-08-22T10:43:57.487Z,30.04
2022-08-22T10:54:20.048Z,29.62
2022-08-22T11:04:35.752Z,29.96
2022-08-22T11:14:45.147Z,29.82
2022-08-22T11:25:04.499Z,30.04
2022-08-22T11:35:28.330Z,29.68
2022-08-22T11:45:36.080Z,28.76
2022-08-22T11:56:06.132Z,29.39
2022-08-22T12:06:30.659Z,28.97
2022-08-22T12:16:50.038Z,28.07
2022-08-22T12:27:29.245Z,27.97
2022-08-22T12:38:09.550Z,27.31
2022-08-22T12:49:08.093Z,27.21
2022-08-22T12:59:35.198Z,26.65
2022-08-22T13:21:15.147Z,26.41
2022-08-22T13:31:40.396Z,25.94
2022-08-22T14:59:50.091Z,33.60
2022-08-22T15:21:37.045Z,36.39
2022-08-22T15:32:09.623Z,37.44
2022-08-22T15:42:34.276Z,38.28
2022-08-22T15:53:05.126Z,39.84
2022-08-22T16:03:34.824Z,41.43
2022-08-22T16:14:05.280Z,42.73
2022-08-22T16:24:24.180Z,43.51
2022-08-22T16:34:50.557Z,44.79
2022-08-22T16:45:14.089Z,45.83
2022-08-22T16:55:42.784Z,47.19
2022-08-22T17:17:02.764Z,50.17
2022-08-22T17:27:36.041Z,51.00
2022-08-22T17:38:02.986Z,51.81
2022-08-22T18:44:21.923Z,58.90
2022-08-22T20:31:58.076Z,65.78
